createdAt,value
2019-02-21T00:02:44.590Z,17.60
2019-02-21T00:07:35.307Z,18.70
2019-02-21T00:12:25.093Z,14.90
2019-02-21T00:17:16.769Z,16.10
2019-02-21T00:22:08.783Z,14.20
2019-02-21T00:27:00.680Z,13.70
2019-02-21T00:31:52.622Z,18.50
2019-02-21T00:36:42.656Z,17.40
2019-02-21T00:41:33.424Z,16.60
2019-02-21T00:46:23.413Z,20.30
2019-02-21T00:51:12.931Z,17.70
2019-02-21T00:56:05.038Z,20.60
2019-02-21T01:00:56.939Z,17.00
2019-02-21T01:05:48.886Z,20.70
2019-02-21T01:10:41.039Z,21.10
2019-02-21T01:15:32.608Z,15.60
2019-02-21T01:20:24.454Z,23.30
2019-02-21T01:25:16.406Z,23.80
2019-02-21T01:30:08.125Z,15.40
2019-02-21T01:34:59.952Z,16.30
2019-02-21T01:39:51.715Z,16.50
2019-02-21T01:44:43.386Z,21.70
2019-02-21T01:49:35.487Z,22.10
2019-02-21T01:54:24.047Z,18.30
2019-02-21T01:59:15.501Z,22.40
2019-02-21T02:04:06.174Z,17.50
2019-02-21T02:08:55.965Z,19.70
2019-02-21T02:13:47.274Z,19.50
2019-02-21T02:18:37.179Z,15.50
2019-02-21T02:23:27.383Z,17.80
2019-02-21T02:28:20.423Z,14.70
2019-02-21T02:33:12.373Z,14.10
2019-02-21T02:38:04.265Z,14.90
2019-02-21T02:42:56.160Z,13.20
2019-02-21T02:47:48.231Z,16.00
2019-02-21T02:52:58.662Z,17.00
2019-02-21T02:58:07.148Z,16.10
2019-02-21T03:02:56.614Z,12.60
2019-02-21T03:07:48.425Z,15.30
2019-02-21T03:12:39.949Z,12.30
2019-02-21T03:17:31.855Z,12.40
2019-02-21T03:22:23.901Z,13.70
2019-02-21T03:27:15.692Z,18.40
2019-02-21T03:32:08.105Z,16.40
2019-02-21T03:37:00.143Z,12.40
2019-02-21T03:41:52.227Z,13.40
2019-02-21T03:46:44.079Z,11.40
2019-02-21T03:51:35.649Z,14.70
2019-02-21T03:56:27.445Z,17.30
2019-02-21T04:01:19.495Z,15.00
2019-02-21T04:06:10.901Z,11.90
2019-02-21T04:11:03.427Z,12.30
2019-02-21T04:15:55.377Z,13.70
2019-02-21T04:20:49.402Z,13.90
2019-02-21T04:25:42.213Z,20.40
2019-02-21T04:30:33.065Z,14.00
2019-02-21T04:35:28.213Z,17.90
2019-02-21T04:40:21.799Z,19.10
2019-02-21T04:45:13.755Z,14.70
2019-02-21T04:50:19.533Z,23.10
2019-02-21T04:55:23.370Z,22.20
2019-02-21T05:00:12.663Z,15.60
2019-02-21T05:05:05.557Z,16.00
2019-02-21T05:10:00.367Z,18.40
2019-02-21T05:14:51.663Z,18.80
2019-02-21T05:19:41.690Z,19.30
2019-02-21T05:24:33.527Z,20.50
2019-02-21T05:29:22.397Z,19.30
2019-02-21T05:34:10.751Z,18.20
2019-02-21T05:39:01.698Z,16.90
2019-02-21T05:43:51.649Z,19.40
2019-02-21T05:48:49.327Z,24.60
2019-02-21T05:53:37.311Z,21.40
2019-02-21T05:58:27.539Z,21.70
2019-02-21T06:03:19.026Z,21.60
2019-02-21T06:08:07.985Z,21.70
2019-02-21T06:12:59.893Z,25.80
2019-02-21T06:17:49.350Z,22.90
2019-02-21T06:22:39.803Z,22.40
2019-02-21T06:27:29.814Z,23.40
2019-02-21T06:32:23.385Z,21.20
2019-02-21T06:37:14.707Z,19.90
2019-02-21T06:42:04.029Z,23.40
2019-02-21T06:47:01.227Z,26.40
2019-02-21T06:51:52.590Z,27.00
2019-02-21T06:56:41.929Z,23.40
2019-02-21T07:01:32.329Z,31.70
2019-02-21T07:06:30.997Z,23.20
2019-02-21T07:11:20.157Z,26.50
2019-02-21T07:16:10.027Z,21.60
2019-02-21T07:21:03.105Z,22.90
2019-02-21T07:26:10.929Z,31.90
2019-02-21T07:31:01.614Z,26.70
2019-02-21T07:36:07.580Z,30.40
2019-02-21T07:41:07.302Z,34.90
2019-02-21T07:45:57.416Z,26.70
2019-02-21T07:50:47.764Z,26.10
2019-02-21T07:55:45.525Z,31.40
2019-02-21T08:00:34.011Z,33.10
2019-02-21T08:05:24.692Z,23.80
2019-02-21T08:10:20.910Z,28.00
2019-02-21T08:15:21.972Z,24.10
2019-02-21T08:20:16.055Z,23.60
2019-02-21T08:25:16.032Z,31.10
2019-02-21T08:30:09.046Z,23.50
2019-02-21T08:35:01.455Z,24.20
2019-02-21T08:39:51.721Z,27.90
2019-02-21T08:44:45.083Z,24.70
2019-02-21T08:49:44.070Z,25.50
2019-02-21T08:54:32.431Z,25.50
2019-02-21T08:59:22.511Z,26.10
2019-02-21T09:04:26.308Z,29.70
2019-02-21T09:09:16.457Z,25.80
2019-02-21T09:14:08.257Z,31.40
2019-02-21T09:18:58.757Z,27.90
2019-02-21T09:23:51.836Z,26.40
2019-02-21T09:28:43.534Z,27.70
2019-02-21T09:33:51.132Z,30.00
2019-02-21T09:38:56.239Z,28.90
2019-02-21T09:44:01.411Z,35.10
2019-02-21T09:49:06.455Z,32.30
2019-02-21T09:54:14.206Z,29.00
2019-02-21T09:59:07.479Z,32.30
2019-02-21T10:03:57.403Z,27.80
2019-02-21T10:09:03.479Z,31.80
2019-02-21T10:14:10.613Z,31.30
2019-02-21T10:19:12.902Z,32.00
2019-02-21T10:24:16.585Z,33.30
2019-02-21T10:29:20.236Z,31.70
2019-02-21T10:34:23.198Z,30.90
2019-02-21T10:39:26.874Z,35.70
2019-02-21T10:44:31.756Z,30.60
2019-02-21T10:49:37.833Z,28.70
2019-02-21T10:54:45.011Z,29.20
2019-02-21T10:59:48.864Z,26.40
2019-02-21T11:04:54.972Z,23.20
2019-02-21T11:09:58.981Z,22.00
2019-02-21T11:15:05.383Z,18.30
2019-02-21T11:20:09.848Z,25.90
2019-02-21T11:25:15.367Z,19.30
2019-02-21T11:30:20.252Z,20.20
2019-02-21T11:35:26.886Z,19.40
2019-02-21T11:40:32.522Z,17.60
2019-02-21T11:45:37.488Z,20.90
2019-02-21T11:50:41.373Z,17.30
2019-02-21T11:55:30.909Z,18.90
2019-02-21T12:00:36.986Z,16.50
2019-02-21T12:05:44.038Z,22.70
2019-02-21T12:10:50.931Z,16.20
2019-02-21T12:15:55.729Z,18.60
2019-02-21T12:21:03.602Z,16.70
2019-02-21T12:25:52.871Z,15.30
2019-02-21T12:30:59.529Z,15.20
2019-02-21T12:36:05.629Z,11.60
2019-02-21T12:41:09.492Z,13.90
2019-02-21T12:46:14.299Z,13.20
2019-02-21T12:51:12.167Z,9.80
2019-02-21T12:56:15.872Z,12.80
2019-02-21T13:01:19.171Z,18.10
2019-02-21T13:06:22.448Z,16.50
2019-02-21T13:11:11.972Z,11.90
2019-02-21T13:16:16.137Z,15.30
2019-02-21T13:21:04.938Z,12.10
2019-02-21T13:26:10.269Z,18.10
2019-02-21T13:31:14.095Z,16.20
2019-02-21T13:36:19.489Z,18.40
2019-02-21T13:41:24.468Z,15.60
2019-02-21T13:46:36.700Z,14.20
2019-02-21T13:51:43.612Z,15.80
2019-02-21T13:56:47.034Z,17.40
2019-02-21T14:01:50.802Z,16.70
2019-02-21T14:06:53.871Z,15.80
2019-02-21T14:11:57.589Z,16.50
2019-02-21T14:17:00.039Z,17.20
2019-02-21T14:22:04.064Z,16.60
2019-02-21T14:27:08.795Z,17.30
2019-02-21T14:32:13.614Z,17.60
2019-02-21T14:37:18.130Z,19.10
2019-02-21T14:42:06.611Z,15.10
2019-02-21T14:46:57.933Z,14.70
2019-02-21T14:52:04.177Z,17.40
2019-02-21T14:57:08.518Z,16.50
2019-02-21T15:02:12.762Z,16.20
2019-02-21T15:07:16.078Z,18.80
2019-02-21T15:12:19.975Z,17.20
2019-02-21T15:17:24.182Z,22.10
2019-02-21T15:22:27.632Z,17.70
2019-02-21T15:27:29.357Z,17.10
2019-02-21T15:32:32.881Z,16.80
2019-02-21T15:37:39.365Z,17.60
2019-02-21T15:42:42.926Z,15.70
2019-02-21T15:47:47.698Z,20.00
2019-02-21T15:52:53.209Z,18.50
2019-02-21T15:58:03.641Z,19.70
2019-02-21T16:03:07.288Z,18.40
2019-02-21T16:08:05.371Z,19.80
2019-02-21T16:13:09.518Z,18.80
2019-02-21T16:18:19.337Z,18.90
2019-02-21T16:23:22.992Z,19.50
2019-02-21T16:28:26.449Z,21.00
2019-02-21T16:33:31.146Z,20.50
2019-02-21T16:38:34.790Z,18.10
2019-02-21T16:43:32.659Z,20.30
2019-02-21T16:48:38.326Z,19.10
2019-02-21T16:53:41.066Z,21.50
2019-02-21T16:58:46.685Z,21.50
2019-02-21T17:03:45.202Z,18.80
2019-02-21T17:08:52.713Z,20.90
2019-02-21T17:13:57.069Z,20.20
2019-02-21T17:18:46.111Z,17.20
2019-02-21T17:23:46.212Z,21.30
2019-02-21T17:28:51.823Z,18.40
2019-02-21T17:33:40.660Z,21.70
2019-02-21T17:38:39.741Z,19.40
2019-02-21T17:43:47.864Z,20.70
2019-02-21T17:48:51.584Z,21.80
2019-02-21T17:53:55.299Z,23.70
2019-02-21T17:58:59.744Z,23.60
2019-02-21T18:04:03.264Z,23.80
2019-02-21T18:09:08.163Z,27.90
2019-02-21T18:14:06.198Z,24.80
2019-02-21T18:19:11.475Z,27.70
2019-02-21T18:24:15.110Z,30.40
2019-02-21T18:29:03.776Z,27.30
2019-02-21T18:33:54.694Z,34.20
2019-02-21T18:38:55.643Z,31.60
2019-02-21T18:43:59.678Z,31.00
2019-02-21T18:49:03.300Z,26.80
2019-02-21T18:54:07.310Z,26.20
2019-02-21T18:59:11.003Z,31.60
2019-02-21T19:04:13.727Z,26.30
2019-02-21T19:09:02.727Z,28.30
2019-02-21T19:14:08.454Z,28.20
2019-02-21T19:19:13.069Z,26.60
2019-02-21T19:24:16.677Z,30.40
2019-02-21T19:29:19.994Z,27.00
2019-02-21T19:34:25.472Z,24.90
2019-02-21T19:39:14.513Z,27.90
2019-02-21T19:44:20.291Z,26.70
2019-02-21T19:49:23.782Z,27.30
2019-02-21T19:54:13.096Z,25.20
2019-02-21T19:59:20.023Z,28.90
2019-02-21T20:04:24.050Z,30.50
2019-02-21T20:09:27.452Z,28.80
2019-02-21T20:14:25.193Z,28.10
2019-02-21T20:19:30.006Z,27.70
2019-02-21T20:24:33.273Z,27.90
2019-02-21T20:29:36.617Z,25.20
2019-02-21T20:34:23.487Z,23.00
2019-02-21T20:39:29.691Z,28.40
2019-02-21T20:44:35.148Z,24.80
2019-02-21T20:49:39.565Z,24.70
2019-02-21T20:54:28.542Z,22.00
2019-02-21T20:59:34.803Z,26.90
2019-02-21T21:04:38.538Z,28.90
2019-02-21T21:09:42.094Z,30.80
2019-02-21T21:14:30.967Z,25.90
2019-02-21T21:19:19.197Z,22.40
2019-02-21T21:24:09.101Z,26.10
2019-02-21T21:29:01.023Z,28.90
2019-02-21T21:33:52.805Z,26.90
2019-02-21T21:38:54.223Z,38.90
2019-02-21T21:43:51.689Z,38.30
2019-02-21T21:48:55.867Z,42.50
2019-02-21T21:53:42.887Z,37.30
2019-02-21T21:58:32.927Z,32.30
2019-02-21T22:03:22.621Z,36.70
2019-02-21T22:08:29.015Z,46.40
2019-02-21T22:13:15.979Z,38.50
2019-02-21T22:18:24.028Z,45.60
2019-02-21T22:23:20.297Z,48.40
2019-02-21T22:28:18.424Z,51.10
2019-02-21T22:33:10.149Z,41.00
2019-02-21T22:38:02.629Z,40.90
2019-02-21T22:42:54.227Z,44.00
2019-02-21T22:47:59.919Z,54.70
2019-02-21T22:52:48.010Z,44.60
2019-02-21T22:57:40.718Z,48.20
2019-02-21T23:02:33.011Z,46.20
2019-02-21T23:07:30.877Z,50.40
2019-02-21T23:12:18.065Z,40.80
2019-02-21T23:17:26.729Z,54.60
2019-02-21T23:22:31.103Z,55.90
2019-02-21T23:27:32.638Z,62.50
2019-02-21T23:32:35.403Z,54.60
2019-02-21T23:37:40.212Z,59.90
2019-02-21T23:42:29.354Z,55.90
2019-02-21T23:47:20.754Z,49.50
2019-02-21T23:52:15.509Z,58.60
2019-02-21T23:57:07.305Z,56.40
